createdAt,value
2023-03-01T00:01:44.386Z,17.73
2023-03-01T00:04:11.908Z,17.13
2023-03-01T00:06:39.382Z,18.00
2023-03-01T00:09:07.663Z,18.88
2023-03-01T00:11:35.417Z,18.63
2023-03-01T00:14:05.780Z,18.77
2023-03-01T00:16:40.421Z,18.77
2023-03-01T00:19:12.205Z,18.25
2023-03-01T00:21:40.956Z,18.27
2023-03-01T00:24:09.045Z,19.05
2023-03-01T00:26:36.640Z,19.45
2023-03-01T00:29:04.932Z,19.48
2023-03-01T00:31:33.967Z,20.00
2023-03-01T00:34:04.482Z,18.75
2023-03-01T00:36:35.045Z,20.88
2023-03-01T00:39:05.315Z,19.35
2023-03-01T00:41:34.846Z,20.15
2023-03-01T00:44:02.175Z,19.67
2023-03-01T00:46:31.556Z,20.35
2023-03-01T00:48:59.137Z,20.50
2023-03-01T00:51:29.515Z,19.85
2023-03-01T00:53:59.583Z,20.52
2023-03-01T00:56:27.769Z,22.08
2023-03-01T00:58:55.161Z,20.67
2023-03-01T01:01:28.386Z,21.83
2023-03-01T01:04:01.589Z,21.40
2023-03-01T01:06:44.002Z,22.58
2023-03-01T01:09:18.073Z,22.42
2023-03-01T01:11:51.570Z,22.30
2023-03-01T01:14:20.091Z,21.63
2023-03-01T01:16:49.072Z,22.83
2023-03-01T01:19:16.453Z,22.13
2023-03-01T01:21:44.398Z,22.85
2023-03-01T01:24:13.545Z,21.63
2023-03-01T01:26:41.530Z,23.00
2023-03-01T01:29:10.059Z,23.92
2023-03-01T01:31:40.524Z,23.05
2023-03-01T01:34:09.350Z,24.23
2023-03-01T01:36:37.054Z,23.58
2023-03-01T01:39:05.343Z,24.05
2023-03-01T01:41:32.924Z,24.42
2023-03-01T01:44:24.350Z,24.80
2023-03-01T01:46:56.548Z,25.58
2023-03-01T01:49:36.247Z,25.42
2023-03-01T01:52:18.035Z,25.33
2023-03-01T01:54:56.006Z,25.98
2023-03-01T01:57:28.580Z,24.92
2023-03-01T02:00:00.490Z,25.98
2023-03-01T02:02:28.410Z,26.08
2023-03-01T02:05:11.175Z,26.15
2023-03-01T02:07:40.924Z,26.05
2023-03-01T02:10:09.126Z,27.58
2023-03-01T02:12:38.835Z,27.08
2023-03-01T02:15:07.332Z,27.60
2023-03-01T02:17:35.627Z,28.23
2023-03-01T02:20:15.916Z,28.63
2023-03-01T02:22:45.816Z,27.50
2023-03-01T02:25:22.020Z,27.55
2023-03-01T02:28:16.578Z,28.60
2023-03-01T02:31:07.202Z,28.40
2023-03-01T02:33:37.710Z,28.95
2023-03-01T02:36:10.229Z,28.52
2023-03-01T02:38:37.868Z,29.23
2023-03-01T02:41:07.412Z,29.52
2023-03-01T02:43:35.812Z,30.58
2023-03-01T02:46:07.518Z,29.65
2023-03-01T02:48:43.407Z,30.60
2023-03-01T02:51:31.255Z,30.80
2023-03-01T02:54:11.023Z,29.95
2023-03-01T02:56:38.487Z,30.15
2023-03-01T02:59:06.361Z,30.65
2023-03-01T03:01:39.477Z,29.83
2023-03-01T03:04:10.832Z,30.98
2023-03-01T03:06:38.475Z,31.88
2023-03-01T03:09:06.078Z,32.20
2023-03-01T03:11:33.359Z,32.60
2023-03-01T03:14:00.876Z,32.17
2023-03-01T03:16:28.223Z,30.67
2023-03-01T03:18:55.898Z,31.80
2023-03-01T03:21:23.128Z,32.38
2023-03-01T03:23:50.668Z,32.88
2023-03-01T03:26:17.901Z,32.97
2023-03-01T03:28:45.388Z,33.28
2023-03-01T03:31:12.631Z,31.90
2023-03-01T03:33:40.147Z,33.55
2023-03-01T03:36:13.899Z,32.72
2023-03-01T03:38:41.380Z,33.10
2023-03-01T03:41:09.287Z,33.22
2023-03-01T03:43:38.613Z,32.17
2023-03-01T03:46:06.707Z,33.42
2023-03-01T03:48:37.142Z,34.28
2023-03-01T03:51:06.713Z,33.88
2023-03-01T03:53:34.421Z,33.25
2023-03-01T03:56:01.789Z,33.80
2023-03-01T03:58:29.292Z,34.42
2023-03-01T04:00:58.136Z,33.35
2023-03-01T04:03:27.397Z,32.97
2023-03-01T04:05:54.929Z,33.63
2023-03-01T04:08:24.022Z,35.35
2023-03-01T04:10:53.327Z,34.30
2023-03-01T04:13:23.448Z,33.50
2023-03-01T04:15:52.469Z,33.33
2023-03-01T04:18:24.407Z,33.90
2023-03-01T04:20:54.746Z,34.00
2023-03-01T04:23:22.399Z,34.50
2023-03-01T04:25:55.666Z,34.75
2023-03-01T04:28:35.191Z,34.05
2023-03-01T04:31:14.713Z,33.63
2023-03-01T04:33:53.756Z,34.45
2023-03-01T04:36:25.113Z,34.13
2023-03-01T04:38:52.930Z,34.58
2023-03-01T04:41:22.469Z,35.00
2023-03-01T04:43:50.504Z,35.15
2023-03-01T04:46:21.252Z,34.47
2023-03-01T04:48:51.505Z,35.47
2023-03-01T04:51:19.417Z,34.53
2023-03-01T04:53:47.288Z,36.58
2023-03-01T04:56:15.018Z,34.05
2023-03-01T04:58:43.036Z,35.45
2023-03-01T05:01:18.287Z,34.75
2023-03-01T05:03:50.528Z,34.63
2023-03-01T05:06:19.924Z,35.05
2023-03-01T05:08:47.462Z,36.65
2023-03-01T05:11:14.830Z,35.33
2023-03-01T05:13:42.535Z,33.28
2023-03-01T05:16:12.430Z,35.38
2023-03-01T05:18:41.740Z,34.15
2023-03-01T05:21:12.504Z,34.05
2023-03-01T05:23:40.515Z,34.67
2023-03-01T05:26:16.180Z,35.40
2023-03-01T05:28:57.519Z,34.40
2023-03-01T05:31:24.832Z,35.30
2023-03-01T05:33:53.722Z,34.85
2023-03-01T05:36:21.078Z,35.75
2023-03-01T05:38:48.838Z,35.53
2023-03-01T05:41:17.805Z,34.40
2023-03-01T05:43:46.045Z,36.20
2023-03-01T05:46:14.345Z,34.80
2023-03-01T05:48:42.501Z,34.60
2023-03-01T05:51:09.697Z,33.40
2023-03-01T05:53:37.200Z,35.85
2023-03-01T05:56:05.647Z,34.75
2023-03-01T05:58:33.196Z,35.13
2023-03-01T06:01:00.508Z,34.72
2023-03-01T06:03:28.123Z,34.72
2023-03-01T06:05:59.601Z,35.33
2023-03-01T06:08:28.247Z,34.38
2023-03-01T06:10:55.680Z,35.03
2023-03-01T06:13:24.482Z,35.85
2023-03-01T06:15:53.188Z,35.03
2023-03-01T06:18:20.911Z,35.38
2023-03-01T06:20:54.597Z,36.70
2023-03-01T06:23:24.328Z,35.28
2023-03-01T06:25:52.055Z,35.58
2023-03-01T06:28:19.574Z,35.42
2023-03-01T06:30:47.233Z,36.50
2023-03-01T06:33:15.096Z,35.13
2023-03-01T06:35:42.624Z,36.00
2023-03-01T06:38:10.454Z,37.47
2023-03-01T06:40:37.708Z,35.60
2023-03-01T06:43:05.426Z,36.08
2023-03-01T06:45:33.298Z,36.55
2023-03-01T06:48:05.810Z,36.80
2023-03-01T06:50:33.557Z,36.80
2023-03-01T06:53:01.758Z,36.50
2023-03-01T06:55:29.410Z,36.58
2023-03-01T06:57:58.097Z,36.20
2023-03-01T07:00:26.403Z,35.88
2023-03-01T07:02:54.380Z,37.10
2023-03-01T07:05:22.040Z,36.03
2023-03-01T07:07:50.033Z,37.13
2023-03-01T07:10:17.481Z,35.25
2023-03-01T07:12:45.086Z,35.83
2023-03-01T07:15:12.398Z,36.38
2023-03-01T07:17:39.968Z,35.22
2023-03-01T07:20:07.645Z,37.83
2023-03-01T07:22:35.137Z,37.40
2023-03-01T07:25:02.440Z,36.55
2023-03-01T07:27:29.962Z,37.42
2023-03-01T07:29:57.281Z,36.63
2023-03-01T07:32:24.864Z,36.63
2023-03-01T07:34:52.773Z,36.38
2023-03-01T07:37:20.343Z,36.20
2023-03-01T07:39:47.613Z,38.28
2023-03-01T07:42:15.172Z,36.50
2023-03-01T07:44:43.041Z,36.20
2023-03-01T07:47:10.726Z,37.03
2023-03-01T07:49:37.971Z,35.97
2023-03-01T07:52:05.546Z,35.72
2023-03-01T07:54:32.864Z,37.35
2023-03-01T07:57:00.479Z,35.58
2023-03-01T07:59:30.040Z,37.10
2023-03-01T08:01:58.500Z,37.17
2023-03-01T08:04:27.622Z,34.97
2023-03-01T08:06:56.299Z,37.60
2023-03-01T08:09:24.963Z,36.25
2023-03-01T08:11:52.590Z,36.78
2023-03-01T08:14:19.938Z,36.15
2023-03-01T08:16:50.697Z,35.97
2023-03-01T08:19:18.523Z,36.10
2023-03-01T08:21:46.105Z,37.00
2023-03-01T08:24:13.380Z,36.78
2023-03-01T08:26:40.967Z,36.97
2023-03-01T08:29:08.268Z,36.13
2023-03-01T08:31:38.485Z,37.35
2023-03-01T08:34:12.053Z,37.38
2023-03-01T08:36:42.561Z,37.03
2023-03-01T08:39:12.171Z,40.22
2023-03-01T08:41:40.367Z,40.42
2023-03-01T08:44:08.738Z,38.85
2023-03-01T08:46:39.239Z,39.50
2023-03-01T08:49:08.331Z,38.72
2023-03-01T08:51:37.865Z,38.65
2023-03-01T08:54:11.777Z,39.20
2023-03-01T08:56:39.517Z,37.33
2023-03-01T08:59:06.927Z,37.83
2023-03-01T09:01:34.584Z,36.67
2023-03-01T09:04:01.943Z,37.60
2023-03-01T09:06:34.048Z,36.80
2023-03-01T09:09:01.736Z,43.15
2023-03-01T09:11:30.408Z,42.60
2023-03-01T09:13:58.012Z,48.05
2023-03-01T09:16:25.611Z,57.13
2023-03-01T09:18:54.608Z,57.47
2023-03-01T09:21:38.980Z,54.92
2023-03-01T09:24:16.739Z,69.20
2023-03-01T09:26:47.798Z,61.45
2023-03-01T09:29:17.239Z,60.63
2023-03-01T09:31:44.909Z,68.97
2023-03-01T09:34:12.892Z,67.60
2023-03-01T09:36:40.460Z,61.75
2023-03-01T09:39:08.163Z,62.13
2023-03-01T09:41:50.205Z,55.88
2023-03-01T09:44:32.620Z,56.50
2023-03-01T09:47:01.313Z,73.82
2023-03-01T09:49:32.708Z,78.60
2023-03-01T09:52:30.672Z,67.47
2023-03-01T09:55:00.401Z,52.00
2023-03-01T09:57:42.470Z,49.13
2023-03-01T10:00:23.324Z,45.50
2023-03-01T10:03:00.759Z,42.75
2023-03-01T10:05:36.983Z,40.53
2023-03-01T10:08:26.300Z,38.60
2023-03-01T10:10:54.769Z,39.28
2023-03-01T10:13:34.068Z,37.50
2023-03-01T10:16:14.952Z,35.15
2023-03-01T10:18:47.591Z,34.80
2023-03-01T10:21:21.586Z,33.70
2023-03-01T10:23:52.707Z,33.13
2023-03-01T10:26:32.354Z,33.17
2023-03-01T10:29:12.660Z,32.85
2023-03-01T10:31:49.497Z,31.75
2023-03-01T10:34:33.078Z,32.08
2023-03-01T10:37:13.261Z,33.33
2023-03-01T10:40:09.180Z,32.55
2023-03-01T10:42:50.209Z,32.20
2023-03-01T10:45:29.985Z,33.05
2023-03-01T10:48:26.952Z,32.33
2023-03-01T10:51:00.691Z,31.33
2023-03-01T10:53:33.047Z,30.73
2023-03-01T10:56:04.397Z,31.42
2023-03-01T10:58:33.509Z,29.77
2023-03-01T11:01:07.162Z,30.33
2023-03-01T11:03:39.683Z,29.63
2023-03-01T11:06:22.714Z,29.10
2023-03-01T11:08:51.401Z,28.90
2023-03-01T11:11:35.834Z,28.05
2023-03-01T11:14:26.335Z,26.75
2023-03-01T11:17:07.048Z,28.13
2023-03-01T11:19:34.558Z,26.85
2023-03-01T11:22:14.017Z,26.85
2023-03-01T11:24:57.271Z,25.35
2023-03-01T11:27:39.766Z,24.67
2023-03-01T11:30:25.199Z,23.83
2023-03-01T11:35:27.811Z,23.58
2023-03-01T11:38:16.656Z,23.48
2023-03-01T11:40:56.228Z,22.83
2023-03-01T11:43:37.902Z,22.77
2023-03-01T11:46:38.232Z,22.77
2023-03-01T11:49:43.468Z,22.88
2023-03-01T11:52:33.656Z,21.40
2023-03-01T11:55:13.111Z,21.77
2023-03-01T11:58:11.108Z,21.55
2023-03-01T12:00:38.756Z,22.02
2023-03-01T12:03:32.336Z,21.88
2023-03-01T12:06:26.028Z,20.05
2023-03-01T12:09:30.732Z,20.63
2023-03-01T12:12:32.182Z,20.65
2023-03-01T12:15:11.021Z,20.17
2023-03-01T12:17:50.807Z,20.23
2023-03-01T12:20:39.226Z,19.33
2023-03-01T12:23:34.535Z,20.08
2023-03-01T12:26:20.115Z,19.30
2023-03-01T12:29:21.571Z,18.85
2023-03-01T12:32:16.330Z,18.15
2023-03-01T12:34:44.483Z,18.05
2023-03-01T12:37:33.547Z,18.10
2023-03-01T12:40:27.780Z,18.02
2023-03-01T12:43:28.923Z,18.27
2023-03-01T12:46:31.297Z,17.00
2023-03-01T12:49:14.478Z,16.23
2023-03-01T12:51:51.872Z,18.35
2023-03-01T12:54:29.163Z,17.23
2023-03-01T12:57:00.962Z,17.42
2023-03-01T13:00:11.000Z,16.25
2023-03-01T13:02:43.614Z,16.77
2023-03-01T13:05:17.444Z,16.33
2023-03-01T13:08:01.881Z,16.15
2023-03-01T13:10:41.511Z,15.63
2023-03-01T13:13:08.969Z,15.40
2023-03-01T13:15:40.471Z,16.17
2023-03-01T13:18:17.225Z,15.60
2023-03-01T13:20:44.456Z,15.23
2023-03-01T13:23:17.750Z,15.50
2023-03-01T13:26:05.837Z,14.77
2023-03-01T13:28:36.393Z,14.95
2023-03-01T13:31:06.392Z,14.85
2023-03-01T13:33:40.852Z,14.82
2023-03-01T13:36:09.851Z,14.60
2023-03-01T13:38:58.340Z,15.55
2023-03-01T13:41:44.095Z,14.88
2023-03-01T13:44:24.633Z,14.68
2023-03-01T13:47:03.100Z,13.77
2023-03-01T13:49:47.546Z,14.20
2023-03-01T13:52:41.478Z,13.93
2023-03-01T13:55:20.537Z,12.93
2023-03-01T13:57:54.676Z,14.32
2023-03-01T14:00:40.622Z,13.82
2023-03-01T14:06:14.857Z,13.40
2023-03-01T14:08:44.799Z,12.40
2023-03-01T14:11:21.409Z,13.30
2023-03-01T14:14:00.827Z,13.10
2023-03-01T14:16:31.587Z,12.38
2023-03-01T14:19:12.707Z,11.98
2023-03-01T14:21:41.638Z,12.90
2023-03-01T14:24:18.325Z,13.38
2023-03-01T14:26:45.951Z,12.05
2023-03-01T14:29:40.103Z,11.98
2023-03-01T14:32:25.203Z,12.13
2023-03-01T14:34:52.811Z,11.15
2023-03-01T14:37:26.253Z,12.07
2023-03-01T14:39:54.547Z,11.73
2023-03-01T14:42:24.361Z,11.43
2023-03-01T14:44:53.763Z,11.93
2023-03-01T14:47:33.879Z,11.73
2023-03-01T14:50:08.727Z,11.02
2023-03-01T14:55:19.229Z,10.90
2023-03-01T14:57:52.123Z,10.82
2023-03-01T15:00:26.316Z,11.75
2023-03-01T15:02:55.988Z,10.70
2023-03-01T15:05:31.337Z,10.55
2023-03-01T15:08:01.769Z,10.85
2023-03-01T15:10:32.033Z,11.50
2023-03-01T15:13:22.834Z,11.10
2023-03-01T15:15:52.248Z,9.80
2023-03-01T15:18:28.709Z,10.70
2023-03-01T15:21:05.723Z,11.38
2023-03-01T15:23:33.466Z,10.20
2023-03-01T15:26:01.482Z,10.90
2023-03-01T15:28:34.136Z,10.55
2023-03-01T15:31:13.574Z,10.75
2023-03-01T15:33:48.026Z,9.52
2023-03-01T15:36:40.135Z,10.37
2023-03-01T15:39:40.323Z,10.35
2023-03-01T15:42:34.526Z,9.60
2023-03-01T15:45:16.519Z,9.82
2023-03-01T15:47:52.365Z,10.32
2023-03-01T15:50:36.241Z,9.63
2023-03-01T15:53:09.319Z,10.52
2023-03-01T15:55:36.879Z,9.50
2023-03-01T15:58:10.628Z,9.40
2023-03-01T16:00:48.615Z,9.40
2023-03-01T16:03:25.572Z,9.48
2023-03-01T16:05:53.203Z,9.43
2023-03-01T16:08:21.760Z,9.32
2023-03-01T16:10:52.132Z,10.20
2023-03-01T16:13:20.254Z,9.68
2023-03-01T16:15:48.281Z,9.38
2023-03-01T16:18:15.660Z,9.25
2023-03-01T16:20:43.241Z,9.10
2023-03-01T16:23:12.680Z,9.52
2023-03-01T16:25:40.288Z,9.15
2023-03-01T16:28:11.827Z,8.95
2023-03-01T16:30:40.576Z,9.43
2023-03-01T16:33:24.238Z,8.75
2023-03-01T16:35:55.143Z,8.45
2023-03-01T16:38:22.616Z,8.55
2023-03-01T16:40:51.989Z,8.75
2023-03-01T16:43:19.288Z,9.07
2023-03-01T16:45:47.461Z,8.52
2023-03-01T16:48:15.158Z,8.30
2023-03-01T16:50:42.835Z,8.30
2023-03-01T16:53:10.887Z,8.40
2023-03-01T16:55:38.918Z,8.25
2023-03-01T16:58:06.688Z,8.30
2023-03-01T17:00:34.321Z,8.02
2023-03-01T17:03:02.163Z,8.57
2023-03-01T17:05:29.932Z,8.98
2023-03-01T17:07:58.053Z,8.35
2023-03-01T17:10:25.650Z,8.05
2023-03-01T17:12:54.430Z,8.32
2023-03-01T17:15:22.432Z,8.07
2023-03-01T17:17:51.787Z,8.43
2023-03-01T17:20:20.036Z,8.10
2023-03-01T17:22:47.443Z,8.80
2023-03-01T17:25:15.906Z,8.20
2023-03-01T17:27:44.144Z,8.43
2023-03-01T17:30:14.598Z,8.63
2023-03-01T17:32:42.665Z,8.18
2023-03-01T17:35:13.727Z,7.80
2023-03-01T17:37:46.358Z,7.93
2023-03-01T17:40:14.366Z,8.05
2023-03-01T17:42:42.696Z,8.43
2023-03-01T17:45:10.946Z,7.97
2023-03-01T17:47:38.519Z,7.53
2023-03-01T17:50:08.280Z,7.93
2023-03-01T17:52:35.927Z,8.18
2023-03-01T17:55:05.347Z,8.13
2023-03-01T17:57:32.944Z,8.05
2023-03-01T18:00:00.631Z,7.60
2023-03-01T18:02:28.747Z,8.43
2023-03-01T18:05:01.311Z,7.72
2023-03-01T18:07:28.848Z,7.90
2023-03-01T18:09:56.707Z,8.15
2023-03-01T18:12:23.948Z,8.35
2023-03-01T18:14:53.625Z,8.77
2023-03-01T18:17:23.805Z,8.35
2023-03-01T18:19:52.099Z,7.90
2023-03-01T18:22:19.504Z,7.85
2023-03-01T18:24:47.363Z,9.05
2023-03-01T18:27:15.588Z,7.97
2023-03-01T18:29:43.395Z,8.38
2023-03-01T18:32:11.028Z,7.85
2023-03-01T18:34:38.968Z,8.00
2023-03-01T18:37:18.137Z,8.20
2023-03-01T18:40:08.030Z,8.07
2023-03-01T18:42:36.434Z,8.20
2023-03-01T18:45:04.424Z,7.72
2023-03-01T18:47:31.686Z,8.63
2023-03-01T18:49:59.210Z,7.68
2023-03-01T18:52:27.060Z,8.00
2023-03-01T18:54:54.612Z,8.63
2023-03-01T18:57:22.043Z,8.23
2023-03-01T18:59:49.906Z,8.50
2023-03-01T19:02:17.357Z,9.32
2023-03-01T19:04:44.978Z,9.25
2023-03-01T19:07:12.540Z,8.90
2023-03-01T19:09:40.899Z,9.10
2023-03-01T19:12:08.630Z,9.10
2023-03-01T19:14:36.163Z,9.35
2023-03-01T19:17:03.524Z,9.15
2023-03-01T19:19:31.343Z,8.95
2023-03-01T19:22:05.760Z,9.32
2023-03-01T19:24:35.176Z,9.52
2023-03-01T19:27:02.615Z,8.95
2023-03-01T19:29:30.260Z,9.65
2023-03-01T19:31:57.605Z,9.70
2023-03-01T19:34:25.570Z,9.80
2023-03-01T19:36:52.914Z,9.13
2023-03-01T19:39:20.550Z,9.35
2023-03-01T19:41:49.958Z,9.73
2023-03-01T19:44:17.888Z,9.88
2023-03-01T19:46:45.395Z,9.80
2023-03-01T19:49:12.983Z,10.25
2023-03-01T19:51:40.351Z,10.23
2023-03-01T19:54:09.742Z,10.77
2023-03-01T19:56:37.469Z,9.93
2023-03-01T19:59:06.733Z,10.38
2023-03-01T20:01:35.125Z,10.35
2023-03-01T20:04:03.910Z,10.45
2023-03-01T20:06:31.764Z,10.68
2023-03-01T20:09:06.248Z,10.30
2023-03-01T20:11:36.411Z,10.23
2023-03-01T20:14:06.662Z,11.10
2023-03-01T20:16:34.895Z,10.50
2023-03-01T20:19:03.322Z,10.52
2023-03-01T20:21:30.876Z,11.40
2023-03-01T20:23:58.711Z,11.27
2023-03-01T20:26:28.505Z,10.98
2023-03-01T20:28:57.230Z,11.25
2023-03-01T20:31:29.494Z,10.98
2023-03-01T20:33:58.808Z,11.00
2023-03-01T20:36:27.231Z,11.43
2023-03-01T20:38:55.487Z,11.43
2023-03-01T20:41:25.924Z,11.85
2023-03-01T20:43:58.604Z,10.55
2023-03-01T20:46:26.821Z,11.60
2023-03-01T20:48:54.696Z,11.95
2023-03-01T20:51:22.210Z,12.18
2023-03-01T20:53:50.434Z,11.23
2023-03-01T20:56:19.548Z,12.98
2023-03-01T20:58:47.234Z,12.90
2023-03-01T21:01:17.981Z,13.10
2023-03-01T21:03:45.679Z,12.70
2023-03-01T21:06:13.803Z,12.35
2023-03-01T21:08:41.364Z,13.50
2023-03-01T21:11:08.664Z,12.93
2023-03-01T21:13:36.515Z,13.55
2023-03-01T21:16:07.897Z,14.20
2023-03-01T21:18:36.997Z,13.38
2023-03-01T21:21:16.450Z,13.38
2023-03-01T21:23:45.170Z,14.05
2023-03-01T21:26:21.235Z,14.35
2023-03-01T21:28:50.859Z,14.88
2023-03-01T21:31:22.248Z,13.98
2023-03-01T21:33:52.380Z,15.00
2023-03-01T21:36:21.276Z,14.43
2023-03-01T21:38:50.329Z,14.60
2023-03-01T21:41:26.082Z,14.70
2023-03-01T21:43:56.866Z,14.90
2023-03-01T21:46:26.099Z,14.68
2023-03-01T21:48:55.173Z,15.02
2023-03-01T21:51:25.284Z,16.45
2023-03-01T21:53:55.582Z,15.90
2023-03-01T21:56:25.902Z,16.55
2023-03-01T21:58:54.105Z,16.27
2023-03-01T22:01:25.351Z,16.08
2023-03-01T22:03:53.310Z,16.50
2023-03-01T22:06:24.517Z,17.20
2023-03-01T22:08:57.482Z,17.35
2023-03-01T22:11:26.227Z,17.00
2023-03-01T22:13:55.852Z,17.30
2023-03-01T22:16:26.225Z,18.52
2023-03-01T22:18:54.441Z,19.25
2023-03-01T22:21:23.070Z,18.95
2023-03-01T22:23:52.828Z,19.05
2023-03-01T22:26:29.368Z,19.23
2023-03-01T22:28:59.161Z,18.75
2023-03-01T22:31:27.929Z,19.73
2023-03-01T22:33:57.106Z,18.92
2023-03-01T22:36:25.477Z,20.80
2023-03-01T22:38:59.326Z,19.35
2023-03-01T22:41:29.290Z,19.42
2023-03-01T22:43:57.196Z,20.52
2023-03-01T22:46:25.115Z,20.58
2023-03-01T22:48:53.045Z,19.73
2023-03-01T22:51:27.568Z,21.88
2023-03-01T22:53:55.576Z,20.75
2023-03-01T22:56:25.689Z,22.10
2023-03-01T22:58:53.244Z,22.23
2023-03-01T23:01:23.483Z,22.05
2023-03-01T23:03:51.318Z,22.53
2023-03-01T23:06:20.560Z,22.02
2023-03-01T23:08:55.502Z,23.08
2023-03-01T23:11:24.582Z,23.25
2023-03-01T23:13:53.356Z,23.90
2023-03-01T23:16:26.173Z,24.00
2023-03-01T23:18:56.062Z,24.00
2023-03-01T23:21:23.360Z,23.50
2023-03-01T23:23:51.096Z,25.45
2023-03-01T23:26:22.138Z,25.85
2023-03-01T23:28:50.817Z,25.95
2023-03-01T23:31:19.161Z,24.88
2023-03-01T23:33:47.334Z,26.45
2023-03-01T23:36:14.685Z,26.85
2023-03-01T23:38:42.589Z,27.50
2023-03-01T23:41:12.011Z,26.73
2023-03-01T23:43:39.626Z,27.17
2023-03-01T23:46:07.015Z,27.65
2023-03-01T23:48:34.669Z,28.60
2023-03-01T23:51:05.574Z,29.35
2023-03-01T23:53:35.920Z,27.50
2023-03-01T23:56:03.805Z,29.75
2023-03-01T23:58:31.408Z,29.88
